Time;durP1;ratioP1;P1;durP2;ratioP2;P2;SDS_P1;SDS_P2;PMS_P1;PMS_P2;Temp;Humidity;BMP_temperature;BMP_pressure;BME280_temperature;BME280_humidity;BME280_pressure;Samples;Min_cycle;Max_cycle;Signal;HPM_P1;HPM_P2
2023/03/11 00:02:17;;;;;;;0.10;0.10;;;;;;;12.64;41.83;96709.50;6211406;22;20016;-59
2023/03/11 00:04:43;;;;;;;1.00;0.15;;;;;;;12.62;41.07;96721.16;6236920;22;20014;-59
2023/03/11 00:07:09;;;;;;;0.17;0.10;;;;;;;12.87;39.61;96716.88;6236244;22;20031;-59
2023/03/11 00:09:35;;;;;;;0.73;0.20;;;;;;;12.80;39.02;96700.44;6264480;22;20106;-59
2023/03/11 00:12:01;;;;;;;0.40;0.13;;;;;;;12.85;39.88;96697.22;6235482;22;20719;-60
2023/03/11 00:14:27;;;;;;;0.35;0.10;;;;;;;12.63;40.07;96645.34;6210149;22;20709;-62
2023/03/11 00:16:52;;;;;;;0.00;0.00;;;;;;;12.82;40.11;96693.22;6210728;22;20562;-59
2023/03/11 00:19:17;;;;;;;0.73;0.10;;;;;;;12.75;41.55;96684.59;6236419;22;20000;-59
2023/03/11 00:21:43;;;;;;;0.45;0.10;;;;;;;12.87;40.45;96675.16;6237127;22;20420;-59
2023/03/11 00:24:08;;;;;;;0.40;0.15;;;;;;;12.52;40.66;96652.97;6262741;22;20011;-59
2023/03/11 00:26:34;;;;;;;0.45;0.10;;;;;;;12.26;41.63;96621.56;6236804;22;20601;-59
2023/03/11 00:28:59;;;;;;;0.08;0.08;;;;;;;12.86;39.60;96686.56;6235892;22;20060;-59
2023/03/11 00:31:28;;;;;;;0.00;0.00;;;;;;;13.03;39.19;96699.97;6236822;22;20281;-59
2023/03/11 00:33:53;;;;;;;0.05;0.00;;;;;;;12.96;39.87;96686.16;6236922;22;20019;-59
2023/03/11 00:36:30;;;;;;;0.60;0.10;;;;;;;12.78;40.58;96702.47;6211001;22;20004;-60
2023/03/11 00:38:56;;;;;;;0.03;0.03;;;;;;;12.71;42.31;96700.88;6234904;22;20003;-59
2023/03/11 00:41:22;;;;;;;0.10;0.10;;;;;;;12.46;44.01;96704.91;6262606;22;20038;-60
2023/03/11 00:43:47;;;;;;;0.20;0.10;;;;;;;12.34;43.72;96675.28;6211144;22;20692;-60
2023/03/11 00:46:12;;;;;;;0.35;0.13;;;;;;;12.28;42.42;96669.09;6235577;22;20034;-60
2023/03/11 00:48:38;;;;;;;0.75;0.10;;;;;;;12.32;43.80;96672.09;6235325;22;20094;-60
2023/03/11 00:51:06;;;;;;;0.38;0.10;;;;;;;12.34;44.40;96666.66;6211168;22;20043;-59
2023/03/11 00:53:31;;;;;;;0.20;0.10;;;;;;;12.27;45.48;96661.47;6234699;22;20004;-59
2023/03/11 00:55:56;;;;;;;0.15;0.10;;;;;;;12.45;43.47;96668.66;6210804;22;20825;-59
2023/03/11 00:58:26;;;;;;;0.10;0.10;;;;;;;12.27;45.70;96648.44;6235013;22;20008;-59
2023/03/11 01:00:51;;;;;;;0.10;0.10;;;;;;;12.17;44.24;96633.19;6236518;22;20030;-59
2023/03/11 01:03:17;;;;;;;0.20;0.00;;;;;;;12.21;44.05;96644.03;6234037;22;20445;-59
2023/03/11 01:05:42;;;;;;;0.20;0.10;;;;;;;12.23;42.54;96645.44;6235376;22;20019;-59
2023/03/11 01:08:07;;;;;;;0.60;0.52;;;;;;;12.18;43.97;96657.47;6235061;22;20011;-59
2023/03/11 01:10:34;;;;;;;0.10;0.10;;;;;;;12.14;42.73;96627.59;6211124;22;20018;-59
2023/03/11 01:13:00;;;;;;;0.00;0.00;;;;;;;12.20;43.46;96637.22;6237098;22;20014;-59
2023/03/11 01:15:31;;;;;;;0.13;0.10;;;;;;;12.41;42.01;96646.59;6212507;22;20015;-60
2023/03/11 01:17:57;;;;;;;0.80;0.10;;;;;;;12.28;42.47;96645.63;6237707;22;20058;-59
2023/03/11 01:20:22;;;;;;;0.20;0.10;;;;;;;12.20;44.46;96647.66;6236934;22;20012;-59
2023/03/11 01:22:48;;;;;;;0.00;0.00;;;;;;;12.14;42.69;96635.41;6238644;22;20004;-59
2023/03/11 01:25:15;;;;;;;0.13;0.10;;;;;;;12.13;43.13;96655.47;6213138;22;20254;-59
2023/03/11 01:27:41;;;;;;;0.30;0.10;;;;;;;12.18;42.31;96634.03;6211894;22;20731;-59
2023/03/11 01:30:08;;;;;;;0.22;0.10;;;;;;;12.15;42.75;96642.25;6264714;22;20004;-60
2023/03/11 01:32:33;;;;;;;0.35;0.15;;;;;;;11.74;43.46;96591.97;6237627;22;20320;-59
2023/03/11 01:34:59;;;;;;;0.30;0.20;;;;;;;12.03;43.52;96637.66;6238417;22;20039;-59
2023/03/11 01:37:25;;;;;;;0.10;0.10;;;;;;;11.92;43.88;96648.69;6264932;22;20004;-59
2023/03/11 01:39:50;;;;;;;0.20;0.10;;;;;;;12.07;43.58;96636.25;6238034;22;20008;-59
2023/03/11 01:42:15;;;;;;;0.05;0.05;;;;;;;11.95;43.38;96656.06;6212081;22;20003;-60
2023/03/11 01:44:41;;;;;;;0.15;0.10;;;;;;;11.86;43.24;96654.63;6237968;22;20083;-59
2023/03/11 01:47:09;;;;;;;0.10;0.03;;;;;;;11.89;43.08;96657.66;6265153;22;20494;-59
2023/03/11 01:49:35;;;;;;;0.47;0.10;;;;;;;11.85;43.62;96650.44;6264161;22;20016;-62
2023/03/11 01:52:02;;;;;;;0.00;0.00;;;;;;;11.77;43.33;96638.41;6213059;22;20090;-60
2023/03/11 01:54:33;;;;;;;0.43;0.20;;;;;;;11.71;43.59;96628.81;6212483;22;20007;-60
2023/03/11 01:57:00;;;;;;;1.02;0.13;;;;;;;11.63;43.71;96619.41;6237739;22;20031;-59
2023/03/11 01:59:28;;;;;;;0.00;0.00;;;;;;;11.60;42.55;96630.22;6237722;22;20162;-60
2023/03/11 02:02:00;;;;;;;0.00;0.00;;;;;;;11.70;41.98;96637.59;6237081;22;20015;-59
2023/03/11 02:04:27;;;;;;;0.00;0.00;;;;;;;11.74;42.68;96652.63;6237755;22;20072;-60
2023/03/11 02:06:55;;;;;;;0.20;0.10;;;;;;;11.48;43.20;96610.97;6212076;22;20003;-60
2023/03/11 02:09:22;;;;;;;0.20;0.03;;;;;;;11.62;44.15;96636.00;6237061;22;20030;-60
2023/03/11 02:11:48;;;;;;;0.08;0.00;;;;;;;11.51;45.04;96634.00;6237898;22;20003;-60
2023/03/11 02:14:14;;;;;;;0.00;0.00;;;;;;;11.16;45.50;96574.31;6237663;22;20306;-59
2023/03/11 02:16:39;;;;;;;0.20;0.10;;;;;;;11.61;42.83;96621.41;6211520;22;20069;-59
2023/03/11 02:19:28;;;;;;;0.20;0.00;;;;;;;11.69;44.00;96631.59;6265432;22;20007;-59
2023/03/11 02:21:55;;;;;;;0.20;0.10;;;;;;;11.52;44.82;96615.59;6212600;22;20050;-59
2023/03/11 02:24:28;;;;;;;0.15;0.08;;;;;;;11.48;45.13;96635.22;6237260;22;20007;-59
2023/03/11 02:26:56;;;;;;;1.92;0.13;;;;;;;11.48;45.62;96635.22;6237662;22;20012;-60
2023/03/11 02:29:22;;;;;;;0.03;0.03;;;;;;;11.44;44.95;96623.56;6235980;22;20022;-59
2023/03/11 02:31:48;;;;;;;0.10;0.10;;;;;;;11.35;45.69;96617.78;6265436;22;20074;-59
2023/03/11 02:34:29;;;;;;;0.10;0.10;;;;;;;11.42;44.93;96633.38;6261214;22;20130;-59
2023/03/11 02:36:55;;;;;;;0.00;0.00;;;;;;;11.45;45.27;96632.19;6211559;22;20013;-59
2023/03/11 02:39:51;;;;;;;0.17;0.10;;;;;;;11.40;44.85;96614.56;6237911;22;20392;-59
2023/03/11 02:42:25;;;;;;;0.13;0.10;;;;;;;11.44;43.45;96607.97;6233007;22;20018;-59
2023/03/11 02:45:06;;;;;;;0.00;0.00;;;;;;;11.21;43.70;96564.13;6237515;22;20018;-59
2023/03/11 02:47:32;;;;;;;0.22;0.10;;;;;;;11.51;42.92;96590.56;6237177;22;20031;-60
2023/03/11 02:49:57;;;;;;;0.10;0.10;;;;;;;11.41;43.24;96599.75;6211431;22;20007;-59
2023/03/11 02:52:27;;;;;;;0.00;0.00;;;;;;;11.43;43.42;96574.34;6265155;22;20014;-60
2023/03/11 02:54:53;;;;;;;0.20;0.08;;;;;;;11.43;43.51;96550.94;6237199;22;20038;-61
2023/03/11 02:57:18;;;;;;;0.10;0.10;;;;;;;11.11;42.84;96476.06;6212032;22;20019;-60
2023/03/11 02:59:44;;;;;;;0.25;0.10;;;;;;;11.52;42.54;96534.13;6264677;22;20640;-60
2023/03/11 03:02:09;;;;;;;0.45;0.10;;;;;;;11.58;42.34;96538.50;6237987;22;20003;-60
2023/03/11 03:04:34;;;;;;;0.22;0.10;;;;;;;11.60;42.24;96538.31;6212310;22;20102;-59
2023/03/11 03:07:00;;;;;;;0.10;0.10;;;;;;;11.56;41.83;96540.50;6212809;22;20630;-60
2023/03/11 03:09:25;;;;;;;0.28;0.10;;;;;;;11.54;42.50;96540.72;6236562;22;20007;-60
2023/03/11 03:11:51;;;;;;;0.20;0.10;;;;;;;11.34;42.65;96540.72;6212347;22;20423;-60
2023/03/11 03:14:16;;;;;;;0.60;0.10;;;;;;;11.51;43.20;96571.53;6211060;22;20018;-59
2023/03/11 03:16:41;;;;;;;0.75;0.10;;;;;;;11.48;42.73;96562.34;6236914;22;20072;-60
2023/03/11 03:19:07;;;;;;;0.00;0.00;;;;;;;11.56;42.63;96576.94;6210873;22;20551;-58
2023/03/11 03:21:32;;;;;;;0.45;0.10;;;;;;;11.48;42.48;96575.34;6237543;22;20452;-60
2023/03/11 03:23:58;;;;;;;0.10;0.10;;;;;;;11.55;44.01;96580.53;6236983;22;20369;-60
2023/03/11 03:26:23;;;;;;;0.15;0.10;;;;;;;11.50;42.51;96572.56;6236625;22;20008;-58
2023/03/11 03:28:49;;;;;;;0.68;0.10;;;;;;;11.50;42.51;96559.53;6237020;22;20015;-59
2023/03/11 03:31:14;;;;;;;0.10;0.10;;;;;;;11.47;42.83;96539.91;6236717;22;20089;-59
2023/03/11 03:33:39;;;;;;;0.00;0.00;;;;;;;11.57;42.40;96508.25;6237643;22;20483;-59
2023/03/11 03:36:07;;;;;;;0.00;0.00;;;;;;;11.68;41.76;96515.47;6237475;22;20030;-60
2023/03/11 03:38:33;;;;;;;0.38;0.20;;;;;;;11.41;41.91;96496.50;6233256;22;20011;-59
2023/03/11 03:40:58;;;;;;;0.10;0.10;;;;;;;11.63;42.24;96554.31;6205113;22;20014;-60
2023/03/11 03:43:24;;;;;;;0.55;0.10;;;;;;;11.72;41.72;96567.94;6229911;22;20081;-59
2023/03/11 03:46:00;;;;;;;0.30;0.17;;;;;;;11.68;42.12;96570.16;6204563;22;20558;-59
2023/03/11 03:48:27;;;;;;;0.20;0.10;;;;;;;11.50;42.62;96542.13;6231086;22;20034;-61
2023/03/11 03:50:52;;;;;;;0.35;0.10;;;;;;;11.74;42.34;96582.34;6209100;22;20018;-60
2023/03/11 03:53:18;;;;;;;0.10;0.10;;;;;;;11.69;42.67;96605.56;6236778;22;20004;-59
2023/03/11 03:55:44;;;;;;;0.35;0.10;;;;;;;11.69;42.58;96608.19;6236831;22;20003;-59
2023/03/11 03:58:09;;;;;;;0.10;0.10;;;;;;;11.71;43.37;96613.97;6210801;22;20015;-59
2023/03/11 04:00:35;;;;;;;0.10;0.10;;;;;;;11.74;42.62;96595.38;6261690;22;20012;-59
2023/03/11 04:03:00;;;;;;;0.25;0.10;;;;;;;11.72;42.45;96580.97;6211004;22;20666;-59
2023/03/11 04:05:26;;;;;;;0.17;0.00;;;;;;;11.84;42.12;96592.34;6235493;22;20077;-60
2023/03/11 04:07:52;;;;;;;0.15;0.00;;;;;;;11.74;42.31;96568.53;6236090;22;20470;-60
2023/03/11 04:10:18;;;;;;;0.10;0.10;;;;;;;11.73;42.85;96552.09;6211118;22;20027;-60
2023/03/11 04:12:43;;;;;;;0.10;0.10;;;;;;;11.68;42.63;96541.50;6236562;22;20616;-59
2023/03/11 04:15:09;;;;;;;0.35;0.10;;;;;;;11.62;43.13;96534.50;6210786;22;20384;-59
2023/03/11 04:17:35;;;;;;;0.03;0.03;;;;;;;11.60;42.82;96540.91;6236712;22;20721;-60
2023/03/11 04:20:01;;;;;;;0.30;0.10;;;;;;;11.63;43.30;96571.75;6235377;22;20737;-59
2023/03/11 04:22:26;;;;;;;0.28;0.10;;;;;;;11.71;42.92;96597.56;6236800;22;20086;-59
2023/03/11 04:24:52;;;;;;;0.08;0.08;;;;;;;11.66;42.98;96587.78;6211842;22;20011;-60
2023/03/11 04:27:17;;;;;;;0.20;0.10;;;;;;;11.59;43.31;96580.94;6236891;22;20004;-61
2023/03/11 04:29:42;;;;;;;0.20;0.10;;;;;;;11.18;43.50;96502.09;6235698;22;20008;-61
2023/03/11 04:32:08;;;;;;;0.10;0.10;;;;;;;11.60;43.21;96549.50;6210801;22;20739;-60
2023/03/11 04:34:33;;;;;;;0.05;0.00;;;;;;;11.74;43.41;96538.09;6237068;22;20003;-60
2023/03/11 04:36:59;;;;;;;0.15;0.10;;;;;;;11.79;42.68;96544.47;6236129;22;20118;-59
2023/03/11 04:39:24;;;;;;;0.10;0.10;;;;;;;11.72;43.56;96532.28;6236458;22;20011;-60
2023/03/11 04:41:50;;;;;;;0.10;0.10;;;;;;;11.67;43.72;96544.31;6264335;22;20018;-59
2023/03/11 04:44:15;;;;;;;0.35;0.08;;;;;;;11.32;43.58;96489.88;6236847;22;20011;-60
2023/03/11 04:46:41;;;;;;;0.10;0.10;;;;;;;11.69;43.73;96535.28;6235621;22;20426;-59
2023/03/11 04:49:07;;;;;;;0.30;0.10;;;;;;;11.68;44.03;96533.69;6210533;22;20428;-60
2023/03/11 04:51:32;;;;;;;0.10;0.10;;;;;;;11.61;44.24;96542.50;6211575;22;20015;-60
2023/03/11 04:53:57;;;;;;;0.93;0.10;;;;;;;11.65;44.04;96548.91;6210356;22;20676;-60
2023/03/11 04:56:23;;;;;;;0.00;0.00;;;;;;;11.63;44.46;96554.31;6211423;22;20600;-58
2023/03/11 04:58:48;;;;;;;0.55;0.20;;;;;;;11.64;44.59;96576.72;6234321;22;20011;-61
2023/03/11 05:01:14;;;;;;;0.43;0.25;;;;;;;11.64;44.75;96588.97;6236354;22;20007;-61
2023/03/11 05:03:39;;;;;;;0.32;0.10;;;;;;;11.49;45.23;96596.97;6236176;22;20004;-58
2023/03/11 05:06:05;;;;;;;0.13;0.10;;;;;;;11.14;47.04;96552.91;6264094;22;20011;-58
2023/03/11 05:08:30;;;;;;;0.10;0.10;;;;;;;11.19;48.31;96589.53;6236060;22;20014;-58
2023/03/11 05:10:55;;;;;;;0.10;0.10;;;;;;;11.17;47.29;96588.94;6236803;22;20083;-58
2023/03/11 05:13:21;;;;;;;0.38;0.10;;;;;;;11.17;47.41;96588.94;6236299;22;20076;-58
2023/03/11 05:15:47;;;;;;;0.22;0.10;;;;;;;11.31;47.47;96626.97;6235896;22;20004;-60
2023/03/11 05:18:13;;;;;;;0.95;0.20;;;;;;;11.23;47.86;96595.16;6235844;22;20011;-60
2023/03/11 05:20:38;;;;;;;0.30;0.10;;;;;;;11.36;46.67;96576.94;6235502;22;20003;-60
2023/03/11 05:23:04;;;;;;;0.10;0.10;;;;;;;11.31;47.28;96561.13;6236253;22;20022;-58
2023/03/11 05:25:29;;;;;;;0.57;0.20;;;;;;;11.36;47.42;96563.94;6210467;22;20384;-60
2023/03/11 05:27:55;;;;;;;1.50;0.20;;;;;;;11.42;47.39;96544.13;6236895;22;20487;-60
2023/03/11 05:30:20;;;;;;;1.90;0.10;;;;;;;11.48;47.01;96540.69;6211162;22;20401;-61
2023/03/11 05:32:46;;;;;;;0.10;0.10;;;;;;;11.51;47.60;96554.13;6210359;22;20407;-61
2023/03/11 05:35:11;;;;;;;0.20;0.10;;;;;;;11.39;47.58;96524.50;6236120;22;20087;-60
2023/03/11 05:37:38;;;;;;;0.20;0.10;;;;;;;11.38;48.05;96514.31;6211439;22;20061;-59
2023/03/11 05:40:06;;;;;;;0.00;0.00;;;;;;;11.20;47.11;96478.47;6211115;22;20007;-59
2023/03/11 05:42:32;;;;;;;0.10;0.10;;;;;;;11.58;46.89;96535.09;6212317;22;20012;-59
2023/03/11 05:44:57;;;;;;;0.20;0.10;;;;;;;11.50;47.45;96586.38;6210315;22;20023;-59
2023/03/11 05:47:23;;;;;;;0.10;0.10;;;;;;;11.49;48.07;96586.56;6236774;22;20082;-59
2023/03/11 05:49:49;;;;;;;0.00;0.00;;;;;;;11.67;46.13;96557.31;6210936;22;20469;-59
2023/03/11 05:52:14;;;;;;;0.00;0.00;;;;;;;11.18;47.15;96464.88;6234418;22;20015;-59
2023/03/11 05:54:40;;;;;;;0.22;0.10;;;;;;;11.69;46.76;96540.50;6236830;22;20031;-59
2023/03/11 05:57:05;;;;;;;0.00;0.00;;;;;;;11.83;46.79;96543.09;6235554;22;20008;-59
2023/03/11 05:59:31;;;;;;;0.10;0.10;;;;;;;11.76;47.27;96516.28;6236557;22;20060;-60
2023/03/11 06:01:57;;;;;;;0.10;0.10;;;;;;;11.71;48.61;96529.88;6236853;22;20399;-59
2023/03/11 06:04:23;;;;;;;0.20;0.20;;;;;;;11.66;47.59;96553.13;6237089;22;20094;-59
2023/03/11 06:06:48;;;;;;;0.38;0.13;;;;;;;11.74;46.40;96571.94;6238521;22;20007;-60
2023/03/11 06:09:14;;;;;;;0.00;0.00;;;;;;;11.78;45.45;96563.72;6264885;22;20428;-60
2023/03/11 06:11:40;;;;;;;2.08;0.13;;;;;;;11.87;45.61;96552.09;6237996;22;20116;-60
2023/03/11 06:14:06;;;;;;;0.40;0.10;;;;;;;11.91;45.21;96568.94;6209556;22;20153;-59
2023/03/11 06:16:31;;;;;;;0.15;0.13;;;;;;;11.90;45.55;96555.13;6237661;22;20003;-59
2023/03/11 06:18:59;;;;;;;0.32;0.10;;;;;;;11.77;45.37;96541.28;6264424;22;20507;-60
2023/03/11 06:21:25;;;;;;;0.40;0.10;;;;;;;11.69;46.38;96547.50;6235923;22;20039;-59
2023/03/11 06:23:51;;;;;;;0.43;0.10;;;;;;;11.69;46.90;96550.91;6212108;22;20011;-59
2023/03/11 06:26:21;;;;;;;0.55;0.15;;;;;;;11.71;44.96;96533.28;6236934;22;20015;-59
2023/03/11 06:28:48;;;;;;;0.38;0.17;;;;;;;11.88;45.13;96538.88;6211925;22;20030;-59
2023/03/11 06:31:24;;;;;;;0.10;0.10;;;;;;;11.73;45.81;96513.03;6236094;22;20011;-60
2023/03/11 06:33:49;;;;;;;0.00;0.00;;;;;;;11.95;44.85;96538.88;6237822;22;20019;-59
2023/03/11 06:36:16;;;;;;;3.63;0.50;;;;;;;11.95;45.91;96532.88;6236853;22;20007;-60
2023/03/11 06:38:42;;;;;;;0.15;0.10;;;;;;;11.89;45.27;96553.47;6211000;22;20018;-59
2023/03/11 06:41:08;;;;;;;0.15;0.15;;;;;;;11.91;44.79;96574.94;6211437;22;20090;-59
2023/03/11 06:43:34;;;;;;;0.10;0.10;;;;;;;12.08;43.99;96580.53;6236914;22;20595;-59
2023/03/11 06:46:00;;;;;;;0.20;0.10;;;;;;;12.09;44.86;96565.69;6236744;22;20584;-59
2023/03/11 06:48:27;;;;;;;0.10;0.10;;;;;;;11.98;46.35;96561.91;6211879;22;20015;-60
2023/03/11 06:50:57;;;;;;;0.68;0.10;;;;;;;11.97;45.20;96546.50;6211651;22;20322;-60
2023/03/11 06:53:23;;;;;;;0.30;0.10;;;;;;;11.82;47.09;96572.72;6237119;22;20031;-59
2023/03/11 06:56:00;;;;;;;0.10;0.10;;;;;;;11.82;46.20;96570.91;6211459;22;20012;-59
2023/03/11 06:58:26;;;;;;;0.93;0.20;;;;;;;11.86;46.15;96571.31;6236579;22;20007;-59
2023/03/11 07:00:51;;;;;;;0.28;0.10;;;;;;;11.82;45.98;96599.56;6209510;22;20015;-59
2023/03/11 07:03:17;;;;;;;0.38;0.15;;;;;;;11.82;45.78;96598.75;6212159;22;20419;-60
2023/03/11 07:05:42;;;;;;;0.20;0.10;;;;;;;11.76;46.28;96610.00;6237404;22;20064;-59
2023/03/11 07:08:07;;;;;;;0.10;0.10;;;;;;;11.86;45.57;96610.38;6210632;22;20090;-60
2023/03/11 07:10:34;;;;;;;0.10;0.10;;;;;;;11.71;47.40;96626.22;6211873;22;20110;-61
2023/03/11 07:12:59;;;;;;;0.25;0.15;;;;;;;11.76;46.76;96621.22;6210736;22;20007;-60
2023/03/11 07:15:25;;;;;;;0.20;0.20;;;;;;;11.78;46.56;96611.38;6265719;22;20023;-61
2023/03/11 07:17:50;;;;;;;0.43;0.17;;;;;;;11.82;46.50;96619.59;6236000;22;20019;-61
2023/03/11 07:20:16;;;;;;;0.10;0.10;;;;;;;11.89;47.68;96615.19;6235355;22;20003;-61
2023/03/11 07:22:42;;;;;;;0.47;0.20;;;;;;;12.05;43.92;96616.63;6237046;22;20480;-60
2023/03/11 07:25:07;;;;;;;0.20;0.10;;;;;;;12.07;46.14;96618.00;6211468;22;20082;-60
2023/03/11 07:27:33;;;;;;;0.50;0.10;;;;;;;11.92;48.48;96620.81;6237368;22;20031;-61
2023/03/11 07:30:00;;;;;;;0.22;0.10;;;;;;;12.04;47.09;96615.00;6235591;22;20008;-59
2023/03/11 07:32:26;;;;;;;0.50;0.15;;;;;;;12.13;43.99;96605.97;6195821;22;20049;-61
2023/03/11 07:34:51;;;;;;;0.50;0.10;;;;;;;12.23;45.27;96636.81;6232154;22;20602;-59
2023/03/11 07:37:17;;;;;;;1.00;0.17;;;;;;;12.16;46.65;96662.09;6260020;22;20014;-60
2023/03/11 07:39:42;;;;;;;0.10;0.10;;;;;;;12.04;48.33;96649.66;6231400;22;20012;-60
2023/03/11 07:42:07;;;;;;;0.10;0.10;;;;;;;12.11;48.60;96624.41;6231395;22;20451;-60
2023/03/11 07:44:33;;;;;;;0.22;0.10;;;;;;;12.20;45.75;96638.03;6231561;22;20574;-61
2023/03/11 07:47:02;;;;;;;0.25;0.13;;;;;;;12.19;46.36;96653.84;6258355;22;20011;-61
2023/03/11 07:49:27;;;;;;;0.38;0.10;;;;;;;12.15;47.00;96657.88;6206146;22;20008;-60
2023/03/11 07:51:53;;;;;;;0.40;0.10;;;;;;;12.25;46.69;96648.63;6206355;22;20069;-60
2023/03/11 07:54:18;;;;;;;0.20;0.10;;;;;;;12.19;47.96;96648.63;6255211;22;20441;-60
2023/03/11 07:56:44;;;;;;;0.63;0.10;;;;;;;12.36;45.91;96634.19;6259268;22;20648;-60
2023/03/11 07:59:09;;;;;;;0.20;0.10;;;;;;;12.39;46.33;96627.75;6231611;22;20908;-60
2023/03/11 08:01:35;;;;;;;1.05;0.30;;;;;;;12.36;46.35;96607.31;6231300;22;20034;-60
2023/03/11 08:04:05;;;;;;;1.23;0.50;;;;;;;12.28;46.89;96613.53;6231281;22;20008;-60
2023/03/11 08:06:31;;;;;;;;;;;;;;;12.45;45.39;96632.16;6231059;22;20106;-59
2023/03/11 08:09:02;;;;;;;1.30;0.40;;;;;;;12.53;45.31;96628.53;6205093;22;19909;-61
2023/03/11 08:11:29;;;;;;;1.73;0.50;;;;;;;12.18;45.07;96574.91;6232756;22;20400;-60
2023/03/11 08:13:56;;;;;;;0.95;0.30;;;;;;;12.61;44.38;96620.47;6230077;22;20065;-59
2023/03/11 08:16:22;;;;;;;0.50;0.28;;;;;;;12.50;46.14;96609.69;6205466;22;20107;-60
2023/03/11 08:18:49;;;;;;;1.92;0.60;;;;;;;12.45;46.58;96604.28;6205993;22;20098;-60
2023/03/11 08:21:20;;;;;;;1.38;0.30;;;;;;;12.06;47.02;96553.88;6206299;22;20550;-60
2023/03/11 08:23:46;;;;;;;1.67;0.40;;;;;;;12.40;47.21;96601.50;6202898;22;20004;-61
2023/03/11 08:26:14;;;;;;;0.50;0.20;;;;;;;12.75;44.83;96608.19;6232089;22;20031;-60
2023/03/11 08:28:40;;;;;;;0.75;0.20;;;;;;;12.77;45.44;96624.44;6205854;22;20018;-60
2023/03/11 08:31:22;;;;;;;0.73;0.20;;;;;;;12.73;45.30;96623.25;6231138;22;20011;-60
2023/03/11 08:33:49;;;;;;;1.15;0.35;;;;;;;12.73;45.33;96610.22;6197400;22;20464;-59
2023/03/11 08:36:15;;;;;;;1.58;0.40;;;;;;;12.75;45.92;96595.94;6225663;22;20416;-61
2023/03/11 08:38:40;;;;;;;1.77;0.50;;;;;;;12.70;46.46;96595.75;6233120;22;20042;-60
2023/03/11 08:41:06;;;;;;;0.40;0.20;;;;;;;12.83;43.65;96579.25;6207720;22;20073;-60
2023/03/11 08:43:31;;;;;;;0.98;0.30;;;;;;;12.94;44.76;96586.44;6234763;22;20782;-60
2023/03/11 08:45:59;;;;;;;1.33;0.40;;;;;;;12.93;43.68;96576.22;6205551;22;20065;-60
2023/03/11 08:48:24;;;;;;;2.03;0.50;;;;;;;12.94;45.19;96569.97;6204807;22;20110;-60
2023/03/11 08:50:50;;;;;;;1.67;0.40;;;;;;;13.02;43.92;96567.91;6207427;22;20086;-60
2023/03/11 08:53:15;;;;;;;1.90;0.52;;;;;;;12.90;45.25;96572.19;6228848;22;20003;-60
2023/03/11 08:55:41;;;;;;;1.65;0.50;;;;;;;12.99;43.92;96577.97;6234141;22;19996;-60
2023/03/11 08:58:06;;;;;;;3.58;1.13;;;;;;;12.85;44.66;96553.75;6211333;22;20004;-61
2023/03/11 09:00:32;;;;;;;2.40;0.50;;;;;;;13.22;44.63;96598.31;6227515;22;20081;-60
2023/03/11 09:02:57;;;;;;;1.35;0.40;;;;;;;13.34;43.84;96614.13;6228879;22;20004;-60
2023/03/11 09:05:22;;;;;;;3.92;0.93;;;;;;;13.27;44.84;96612.34;6229949;22;20416;-60
2023/03/11 09:07:48;;;;;;;2.00;0.55;;;;;;;13.45;43.96;96631.72;6228582;22;20424;-61
2023/03/11 09:10:15;;;;;;;1.52;0.40;;;;;;;13.44;43.98;96648.41;6256452;22;20015;-60
2023/03/11 09:12:40;;;;;;;3.33;0.82;;;;;;;13.44;45.19;96657.03;6208717;22;20019;-61
2023/03/11 09:15:07;;;;;;;0.70;0.30;;;;;;;13.49;44.32;96638.13;6204757;22;20019;-61
2023/03/11 09:17:32;;;;;;;1.13;0.50;;;;;;;13.45;46.86;96657.81;6230342;22;20065;-60
2023/03/11 09:19:58;;;;;;;0.50;0.30;;;;;;;13.60;45.31;96678.44;6224884;22;20437;-60
2023/03/11 09:22:23;;;;;;;0.73;0.20;;;;;;;13.39;44.88;96646.41;6207434;22;20338;-60
2023/03/11 09:24:49;;;;;;;0.20;0.20;;;;;;;13.83;42.71;96699.53;6229708;22;20031;-59
2023/03/11 09:27:14;;;;;;;0.17;0.10;;;;;;;13.91;43.44;96705.53;6229671;22;20007;-59
2023/03/11 09:29:40;;;;;;;0.20;0.10;;;;;;;14.06;42.11;96716.47;6227630;22;20432;-60
2023/03/11 09:32:06;;;;;;;0.20;0.10;;;;;;;14.21;42.36;96724.00;6257256;22;20008;-59
2023/03/11 09:34:31;;;;;;;0.10;0.00;;;;;;;14.08;42.96;96729.34;6205901;22;20348;-60
2023/03/11 09:36:57;;;;;;;0.40;0.10;;;;;;;14.16;42.46;96722.00;6233491;22;20240;-59
2023/03/11 09:39:22;;;;;;;0.10;0.10;;;;;;;14.00;41.08;96697.22;6212079;22;20598;-59
2023/03/11 09:41:57;;;;;;;0.43;0.20;;;;;;;14.37;42.96;96741.75;6264386;22;20003;-59
2023/03/11 09:44:36;;;;;;;0.35;0.13;;;;;;;14.30;42.83;96754.09;6187267;22;20225;-59
2023/03/11 09:47:20;;;;;;;0.30;0.10;;;;;;;14.20;41.99;96746.72;6226845;23;20042;-60
2023/03/11 09:50:19;;;;;;;0.50;0.10;;;;;;;14.10;42.60;96743.78;6228089;23;20016;-61
2023/03/11 09:53:03;;;;;;;0.60;0.15;;;;;;;14.21;42.74;96744.91;6177230;23;20015;-59
2023/03/11 09:55:33;;;;;;;0.10;0.10;;;;;;;14.21;42.52;96752.75;6229392;23;20011;-60
2023/03/11 09:58:01;;;;;;;0.38;0.10;;;;;;;14.02;42.91;96702.25;6202234;23;20016;-60
2023/03/11 10:00:26;;;;;;;0.00;0.00;;;;;;;14.23;43.22;96746.28;6202723;23;20012;-60
2023/03/11 10:02:52;;;;;;;0.85;0.00;;;;;;;14.21;42.15;96740.47;6205727;23;20023;-60
2023/03/11 10:05:24;;;;;;;0.32;0.10;;;;;;;14.17;43.43;96720.22;6203605;23;20007;-60
2023/03/11 10:08:39;;;;;;;0.10;0.10;;;;;;;14.27;42.58;96732.78;6205847;23;20071;-60
2023/03/11 10:11:27;;;;;;;0.10;0.10;;;;;;;14.42;42.31;96726.22;6200268;23;20008;-61
2023/03/11 10:14:23;;;;;;;0.10;0.10;;;;;;;14.33;41.18;96706.59;6144517;23;20481;-60
2023/03/11 10:17:15;;;;;;;0.20;0.10;;;;;;;14.69;41.39;96733.03;6205353;23;20064;-60
2023/03/11 10:19:49;;;;;;;0.40;0.10;;;;;;;14.61;41.14;96726.28;6164882;23;20012;-60
2023/03/11 10:22:18;;;;;;;0.65;0.17;;;;;;;14.71;42.07;96736.25;6205514;23;20043;-60
2023/03/11 10:24:58;;;;;;;0.30;0.10;;;;;;;14.79;40.52;96734.16;6231437;23;20008;-59
2023/03/11 10:27:29;;;;;;;0.10;0.10;;;;;;;14.84;41.13;96717.81;6205881;23;20364;-60
2023/03/11 10:30:10;;;;;;;0.05;0.05;;;;;;;14.85;41.64;96711.53;6205573;23;20014;-60
2023/03/11 10:32:43;;;;;;;0.10;0.10;;;;;;;14.85;40.82;96701.06;6201910;23;20574;-60
2023/03/11 10:35:19;;;;;;;1.17;0.30;;;;;;;14.77;42.64;96689.09;6205402;23;20430;-59
2023/03/11 10:37:53;;;;;;;0.52;0.20;;;;;;;14.85;41.56;96698.47;6228646;23;20010;-59
2023/03/11 10:40:25;;;;;;;0.68;0.10;;;;;;;14.75;41.08;96658.94;6203967;23;20004;-60
2023/03/11 10:42:52;;;;;;;0.38;0.10;;;;;;;14.85;41.48;96710.75;6179811;23;20055;-58
2023/03/11 10:45:19;;;;;;;0.10;0.10;;;;;;;14.90;40.56;96695.19;6178283;23;20083;-58
2023/03/11 10:47:45;;;;;;;0.10;0.10;;;;;;;15.02;41.00;96708.34;6192560;22;20147;-60
2023/03/11 10:50:16;;;;;;;1.17;0.10;;;;;;;15.26;40.03;96710.06;6262976;22;20399;-60
2023/03/11 10:53:09;;;;;;;0.20;0.10;;;;;;;15.25;39.86;96726.00;6204655;22;20050;-57
2023/03/11 10:55:34;;;;;;;0.10;0.10;;;;;;;14.90;41.42;96724.78;6207189;22;20011;-60
2023/03/11 10:58:14;;;;;;;0.32;0.20;;;;;;;15.01;41.35;96715.41;6167509;22;20003;-61
2023/03/11 11:00:39;;;;;;;0.47;0.10;;;;;;;14.99;41.80;96704.34;6232682;22;20011;-60
2023/03/11 11:03:15;;;;;;;0.10;0.10;;;;;;;14.94;41.59;96706.81;6232282;22;20008;-62
2023/03/11 11:05:40;;;;;;;0.40;0.20;;;;;;;15.04;40.37;96693.22;6230467;22;20019;-60
2023/03/11 11:08:15;;;;;;;0.68;0.20;;;;;;;15.21;41.14;96702.06;6232177;22;20007;-62
2023/03/11 11:11:23;;;;;;;0.20;0.10;;;;;;;15.18;40.98;96703.31;6207691;22;20012;-61
2023/03/11 11:13:59;;;;;;;0.38;0.10;;;;;;;15.18;41.20;96695.44;6213010;22;20046;-60
2023/03/11 11:16:25;;;;;;;0.35;0.13;;;;;;;15.40;38.99;96694.19;6231721;22;20004;-57
2023/03/11 11:18:53;;;;;;;0.30;0.20;;;;;;;15.35;41.29;96695.66;6235252;22;20031;-59
2023/03/11 11:21:32;;;;;;;0.30;0.10;;;;;;;15.55;39.61;96689.31;6233416;22;20018;-60
2023/03/11 11:24:20;;;;;;;0.47;0.20;;;;;;;15.75;37.55;96689.06;6208296;22;20574;-60
2023/03/11 11:27:14;;;;;;;0.20;0.10;;;;;;;16.11;36.21;96698.59;6208347;22;20011;-60
2023/03/11 11:29:40;;;;;;;0.10;0.10;;;;;;;16.15;36.76;96688.44;6259352;22;20071;-62
2023/03/11 11:32:17;;;;;;;0.25;0.10;;;;;;;16.08;37.12;96698.25;6210105;22;20038;-62
2023/03/11 11:35:08;;;;;;;0.50;0.20;;;;;;;16.20;36.19;96693.81;6234920;22;20039;-61
2023/03/11 11:37:36;;;;;;;0.13;0.10;;;;;;;16.22;36.68;96673.41;6235333;22;20003;-60
2023/03/11 11:40:14;;;;;;;0.10;0.10;;;;;;;16.32;35.90;96664.97;6210790;22;20004;-60